sensor_id;sensor_type;location;lat;lon;timestamp;pressure;altitude;pressure_sealevel;temperature;humidity
77939;BME280;67136;47.546;21.630;2023-12-14T00:01:26;98605.38;;;5.26;100.00
77939;BME280;67136;47.546;21.630;2023-12-14T00:04:28;98616.78;;;5.14;100.00
77939;BME280;67136;47.546;21.630;2023-12-14T00:07:31;98631.22;;;5.16;100.00
77939;BME280;67136;47.546;21.630;2023-12-14T00:10:34;98620.22;;;5.14;100.00
77939;BME280;67136;47.546;21.630;2023-12-14T00:13:37;98624.56;;;5.14;100.00
77939;BME280;67136;47.546;21.630;2023-12-14T00:16:39;98626.59;;;5.20;100.00
77939;BME280;67136;47.546;21.630;2023-12-14T00:19:42;98648.00;;;5.12;100.00
77939;BME280;67136;47.546;21.630;2023-12-14T00:22:45;98657.28;;;5.15;100.00
77939;BME280;67136;47.546;21.630;2023-12-14T00:25:48;98655.09;;;5.10;100.00
77939;BME280;67136;47.546;21.630;2023-12-14T00:28:51;98657.84;;;5.18;100.00
77939;BME280;67136;47.546;21.630;2023-12-14T00:32:03;98668.88;;;5.11;100.00
77939;BME280;67136;47.546;21.630;2023-12-14T00:35:06;98677.56;;;5.09;100.00
77939;BME280;67136;47.546;21.630;2023-12-14T00:38:08;98682.19;;;5.06;100.00
77939;BME280;67136;47.546;21.630;2023-12-14T00:41:11;98684.41;;;5.11;100.00
77939;BME280;67136;47.546;21.630;2023-12-14T00:44:14;98689.94;;;4.96;100.00
77939;BME280;67136;47.546;21.630;2023-12-14T00:47:17;98689.59;;;5.11;100.00
77939;BME280;67136;47.546;21.630;2023-12-14T00:50:19;98696.25;;;5.13;100.00
77939;BME280;67136;47.546;21.630;2023-12-14T00:53:22;98691.22;;;5.12;100.00
77939;BME280;67136;47.546;21.630;2023-12-14T00:56:25;98692.84;;;5.12;100.00
77939;BME280;67136;47.546;21.630;2023-12-14T00:59:28;98694.94;;;5.19;100.00
77939;BME280;67136;47.546;21.630;2023-12-14T01:02:31;98691.50;;;5.08;100.00
77939;BME280;67136;47.546;21.630;2023-12-14T01:05:34;98697.59;;;5.07;100.00
77939;BME280;67136;47.546;21.630;2023-12-14T01:08:37;98710.81;;;5.04;100.00
77939;BME280;67136;47.546;21.630;2023-12-14T01:11:40;98705.37;;;5.07;100.00
77939;BME280;67136;47.546;21.630;2023-12-14T01:14:42;98706.06;;;5.09;100.00
77939;BME280;67136;47.546;21.630;2023-12-14T01:17:45;98716.25;;;5.01;100.00
77939;BME280;67136;47.546;21.630;2023-12-14T01:20:47;98725.66;;;5.02;100.00
77939;BME280;67136;47.546;21.630;2023-12-14T01:23:50;98724.16;;;5.00;100.00
77939;BME280;67136;47.546;21.630;2023-12-14T01:26:53;98714.78;;;5.08;100.00
77939;BME280;67136;47.546;21.630;2023-12-14T01:29:56;98713.56;;;5.12;100.00
77939;BME280;67136;47.546;21.630;2023-12-14T01:32:58;98719.72;;;5.12;100.00
77939;BME280;67136;47.546;21.630;2023-12-14T01:36:01;98731.78;;;4.92;100.00
77939;BME280;67136;47.546;21.630;2023-12-14T01:39:04;98737.25;;;4.98;100.00
77939;BME280;67136;47.546;21.630;2023-12-14T01:42:08;98726.06;;;4.98;100.00
77939;BME280;67136;47.546;21.630;2023-12-14T01:45:10;98733.19;;;5.05;100.00
77939;BME280;67136;47.546;21.630;2023-12-14T01:48:13;98727.31;;;5.03;100.00
77939;BME280;67136;47.546;21.630;2023-12-14T01:51:16;98723.03;;;4.93;100.00
77939;BME280;67136;47.546;21.630;2023-12-14T01:54:18;98723.59;;;4.96;100.00
77939;BME280;67136;47.546;21.630;2023-12-14T01:57:21;98724.91;;;4.81;100.00
77939;BME280;67136;47.546;21.630;2023-12-14T02:03:59;98710.25;;;5.01;100.00
77939;BME280;67136;47.546;21.630;2023-12-14T02:07:02;98692.53;;;4.96;100.00
77939;BME280;67136;47.546;21.630;2023-12-14T02:10:05;98696.75;;;4.97;100.00
77939;BME280;67136;47.546;21.630;2023-12-14T02:13:08;98707.25;;;4.96;100.00
77939;BME280;67136;47.546;21.630;2023-12-14T02:16:11;98712.81;;;4.91;100.00
77939;BME280;67136;47.546;21.630;2023-12-14T02:19:13;98703.09;;;4.84;100.00
77939;BME280;67136;47.546;21.630;2023-12-14T02:22:16;98705.06;;;4.91;100.00
77939;BME280;67136;47.546;21.630;2023-12-14T02:25:21;98714.81;;;4.78;100.00
77939;BME280;67136;47.546;21.630;2023-12-14T02:28:24;98737.41;;;4.76;100.00
77939;BME280;67136;47.546;21.630;2023-12-14T02:31:26;98731.91;;;4.90;100.00
77939;BME280;67136;47.546;21.630;2023-12-14T02:34:29;98729.56;;;4.87;100.00
77939;BME280;67136;47.546;21.630;2023-12-14T02:37:32;98734.06;;;4.85;100.00
77939;BME280;67136;47.546;21.630;2023-12-14T02:40:35;98745.34;;;4.84;100.00
77939;BME280;67136;47.546;21.630;2023-12-14T02:43:37;98743.75;;;4.93;100.00
77939;BME280;67136;47.546;21.630;2023-12-14T02:46:42;98755.22;;;4.90;100.00
77939;BME280;67136;47.546;21.630;2023-12-14T02:49:45;98779.44;;;4.89;100.00
77939;BME280;67136;47.546;21.630;2023-12-14T02:52:48;98785.19;;;4.93;100.00
77939;BME280;67136;47.546;21.630;2023-12-14T02:55:50;98780.22;;;4.80;100.00
77939;BME280;67136;47.546;21.630;2023-12-14T02:58:53;98787.09;;;4.70;100.00
77939;BME280;67136;47.546;21.630;2023-12-14T03:01:56;98801.19;;;4.57;100.00
77939;BME280;67136;47.546;21.630;2023-12-14T03:04:59;98788.87;;;4.49;100.00
77939;BME280;67136;47.546;21.630;2023-12-14T03:08:02;98785.00;;;4.64;100.00
77939;BME280;67136;47.546;21.630;2023-12-14T03:11:05;98786.59;;;4.76;100.00
77939;BME280;67136;47.546;21.630;2023-12-14T03:14:07;98792.97;;;4.72;100.00
77939;BME280;67136;47.546;21.630;2023-12-14T03:17:10;98777.12;;;4.86;100.00
77939;BME280;67136;47.546;21.630;2023-12-14T03:20:15;98768.81;;;4.92;100.00
77939;BME280;67136;47.546;21.630;2023-12-14T03:23:18;98760.19;;;4.82;100.00
77939;BME280;67136;47.546;21.630;2023-12-14T03:26:21;98775.72;;;4.82;100.00
77939;BME280;67136;47.546;21.630;2023-12-14T03:29:23;98790.91;;;4.66;100.00
77939;BME280;67136;47.546;21.630;2023-12-14T03:32:26;98794.84;;;4.70;100.00
77939;BME280;67136;47.546;21.630;2023-12-14T03:35:28;98810.38;;;4.70;100.00
77939;BME280;67136;47.546;21.630;2023-12-14T03:38:31;98812.87;;;4.72;100.00
77939;BME280;67136;47.546;21.630;2023-12-14T03:41:34;98803.56;;;4.69;100.00
77939;BME280;67136;47.546;21.630;2023-12-14T03:44:36;98804.09;;;4.63;100.00
77939;BME280;67136;47.546;21.630;2023-12-14T03:47:39;98795.41;;;4.74;100.00
77939;BME280;67136;47.546;21.630;2023-12-14T03:50:42;98779.31;;;4.70;100.00
77939;BME280;67136;47.546;21.630;2023-12-14T03:53:45;98781.84;;;4.81;100.00
77939;BME280;67136;47.546;21.630;2023-12-14T03:56:47;98776.28;;;4.86;100.00
77939;BME280;67136;47.546;21.630;2023-12-14T03:59:50;98806.03;;;4.71;100.00
77939;BME280;67136;47.546;21.630;2023-12-14T04:02:52;98814.44;;;4.63;100.00
77939;BME280;67136;47.546;21.630;2023-12-14T04:05:55;98823.72;;;4.66;100.00
77939;BME280;67136;47.546;21.630;2023-12-14T04:08:58;98830.25;;;4.49;100.00
77939;BME280;67136;47.546;21.630;2023-12-14T04:12:01;98846.19;;;4.45;100.00
77939;BME280;67136;47.546;21.630;2023-12-14T04:15:05;98841.72;;;4.36;100.00
77939;BME280;67136;47.546;21.630;2023-12-14T04:18:08;98863.06;;;4.49;100.00
77939;BME280;67136;47.546;21.630;2023-12-14T04:21:11;98874.75;;;4.43;100.00
77939;BME280;67136;47.546;21.630;2023-12-14T04:24:13;98864.63;;;4.40;100.00
77939;BME280;67136;47.546;21.630;2023-12-14T04:27:16;98887.69;;;4.43;100.00
77939;BME280;67136;47.546;21.630;2023-12-14T04:30:19;98896.37;;;4.42;100.00
77939;BME280;67136;47.546;21.630;2023-12-14T04:33:21;98898.06;;;4.32;100.00
77939;BME280;67136;47.546;21.630;2023-12-14T04:36:24;98895.69;;;4.40;100.00
77939;BME280;67136;47.546;21.630;2023-12-14T04:39:27;98890.19;;;4.34;100.00
77939;BME280;67136;47.546;21.630;2023-12-14T04:42:30;98897.13;;;4.33;100.00
77939;BME280;67136;47.546;21.630;2023-12-14T04:45:32;98905.13;;;4.30;100.00
77939;BME280;67136;47.546;21.630;2023-12-14T04:48:37;98907.03;;;4.28;100.00
77939;BME280;67136;47.546;21.630;2023-12-14T04:51:40;98903.00;;;4.35;100.00
77939;BME280;67136;47.546;21.630;2023-12-14T04:54:43;98907.25;;;4.36;100.00
77939;BME280;67136;47.546;21.630;2023-12-14T04:57:45;98912.50;;;4.46;100.00
77939;BME280;67136;47.546;21.630;2023-12-14T05:00:48;98916.38;;;4.40;100.00
77939;BME280;67136;47.546;21.630;2023-12-14T05:03:51;98916.63;;;4.37;100.00
77939;BME280;67136;47.546;21.630;2023-12-14T05:06:54;98920.25;;;4.46;100.00
77939;BME280;67136;47.546;21.630;2023-12-14T05:09:56;98917.75;;;4.55;100.00
77939;BME280;67136;47.546;21.630;2023-12-14T05:12:59;98921.03;;;4.57;100.00
77939;BME280;67136;47.546;21.630;2023-12-14T05:16:01;98921.09;;;4.46;100.00
77939;BME280;67136;47.546;21.630;2023-12-14T05:19:04;98916.16;;;4.43;100.00
77939;BME280;67136;47.546;21.630;2023-12-14T05:22:07;98923.47;;;4.38;100.00
77939;BME280;67136;47.546;21.630;2023-12-14T05:25:10;98925.09;;;4.39;100.00
77939;BME280;67136;47.546;21.630;2023-12-14T05:28:12;98939.00;;;4.38;100.00
77939;BME280;67136;47.546;21.630;2023-12-14T05:31:15;98934.41;;;4.42;100.00
77939;BME280;67136;47.546;21.630;2023-12-14T05:34:18;98941.34;;;4.30;100.00
77939;BME280;67136;47.546;21.630;2023-12-14T05:37:21;98949.00;;;4.32;100.00
77939;BME280;67136;47.546;21.630;2023-12-14T05:40:23;98948.25;;;4.41;100.00
77939;BME280;67136;47.546;21.630;2023-12-14T05:43:26;98959.44;;;4.41;100.00
77939;BME280;67136;47.546;21.630;2023-12-14T05:46:28;98970.69;;;4.62;100.00
77939;BME280;67136;47.546;21.630;2023-12-14T05:49:31;98954.94;;;4.54;100.00
77939;BME280;67136;47.546;21.630;2023-12-14T05:52:33;98952.38;;;4.43;100.00
77939;BME280;67136;47.546;21.630;2023-12-14T05:55:37;98963.91;;;4.39;100.00
77939;BME280;67136;47.546;21.630;2023-12-14T05:58:40;98970.63;;;4.42;100.00
77939;BME280;67136;47.546;21.630;2023-12-14T06:01:43;98959.09;;;4.35;100.00
77939;BME280;67136;47.546;21.630;2023-12-14T06:04:46;98956.06;;;4.30;100.00
77939;BME280;67136;47.546;21.630;2023-12-14T06:07:48;98963.44;;;4.34;100.00
77939;BME280;67136;47.546;21.630;2023-12-14T06:10:51;98957.69;;;4.31;100.00
77939;BME280;67136;47.546;21.630;2023-12-14T06:13:53;98964.16;;;4.36;100.00
77939;BME280;67136;47.546;21.630;2023-12-14T06:16:57;98964.41;;;4.33;100.00
77939;BME280;67136;47.546;21.630;2023-12-14T06:20:00;98978.97;;;4.34;100.00
77939;BME280;67136;47.546;21.630;2023-12-14T06:23:02;98981.78;;;4.42;100.00
77939;BME280;67136;47.546;21.630;2023-12-14T06:26:05;98990.50;;;4.41;100.00
77939;BME280;67136;47.546;21.630;2023-12-14T06:29:09;98996.38;;;4.43;100.00
77939;BME280;67136;47.546;21.630;2023-12-14T06:32:12;99003.44;;;4.41;100.00
77939;BME280;67136;47.546;21.630;2023-12-14T06:35:15;99009.53;;;4.40;100.00
77939;BME280;67136;47.546;21.630;2023-12-14T06:38:17;99020.97;;;4.38;100.00
77939;BME280;67136;47.546;21.630;2023-12-14T06:41:21;99032.34;;;4.35;100.00
77939;BME280;67136;47.546;21.630;2023-12-14T06:44:23;99041.78;;;4.36;100.00
77939;BME280;67136;47.546;21.630;2023-12-14T06:47:28;99047.44;;;4.41;100.00
77939;BME280;67136;47.546;21.630;2023-12-14T06:50:31;99053.53;;;4.40;100.00
77939;BME280;67136;47.546;21.630;2023-12-14T06:53:34;99064.59;;;4.42;100.00
77939;BME280;67136;47.546;21.630;2023-12-14T06:56:38;99067.88;;;4.44;100.00
77939;BME280;67136;47.546;21.630;2023-12-14T06:59:40;99078.94;;;4.35;100.00
77939;BME280;67136;47.546;21.630;2023-12-14T07:02:43;99079.63;;;4.37;100.00
77939;BME280;67136;47.546;21.630;2023-12-14T07:05:46;99092.22;;;4.31;100.00
77939;BME280;67136;47.546;21.630;2023-12-14T07:08:49;99102.69;;;4.29;100.00
77939;BME280;67136;47.546;21.630;2023-12-14T07:11:52;99103.66;;;4.28;100.00
77939;BME280;67136;47.546;21.630;2023-12-14T07:14:54;99103.66;;;4.28;100.00
77939;BME280;67136;47.546;21.630;2023-12-14T07:17:57;99105.88;;;4.33;100.00
77939;BME280;67136;47.546;21.630;2023-12-14T07:21:00;99108.34;;;4.34;100.00
77939;BME280;67136;47.546;21.630;2023-12-14T07:24:04;99105.28;;;4.40;100.00
77939;BME280;67136;47.546;21.630;2023-12-14T07:27:07;99105.62;;;4.36;100.00
77939;BME280;67136;47.546;21.630;2023-12-14T07:30:10;99114.94;;;4.38;100.00
77939;BME280;67136;47.546;21.630;2023-12-14T07:33:14;99119.28;;;4.38;100.00
77939;BME280;67136;47.546;21.630;2023-12-14T07:36:17;99114.34;;;4.57;100.00
77939;BME280;67136;47.546;21.630;2023-12-14T07:39:20;99126.69;;;4.64;100.00
77939;BME280;67136;47.546;21.630;2023-12-14T07:42:22;99132.56;;;4.55;100.00
77939;BME280;67136;47.546;21.630;2023-12-14T07:45:25;99131.63;;;4.67;100.00
77939;BME280;67136;47.546;21.630;2023-12-14T07:48:28;99129.97;;;4.77;100.00
77939;BME280;67136;47.546;21.630;2023-12-14T07:51:31;99124.69;;;4.79;100.00
77939;BME280;67136;47.546;21.630;2023-12-14T07:54:35;99132.81;;;4.74;100.00
77939;BME280;67136;47.546;21.630;2023-12-14T07:57:37;99136.56;;;4.70;100.00
77939;BME280;67136;47.546;21.630;2023-12-14T08:00:40;99134.44;;;4.97;100.00
77939;BME280;67136;47.546;21.630;2023-12-14T08:03:42;99141.75;;;4.92;100.00
77939;BME280;67136;47.546;21.630;2023-12-14T08:06:45;99148.09;;;5.11;100.00
77939;BME280;67136;47.546;21.630;2023-12-14T08:09:48;99157.41;;;4.91;100.00
77939;BME280;67136;47.546;21.630;2023-12-14T08:12:51;99164.47;;;5.00;100.00
77939;BME280;67136;47.546;21.630;2023-12-14T08:15:54;99184.59;;;4.96;100.00
77939;BME280;67136;47.546;21.630;2023-12-14T08:18:57;99184.34;;;4.77;100.00
77939;BME280;67136;47.546;21.630;2023-12-14T08:22:02;99195.06;;;4.84;100.00
77939;BME280;67136;47.546;21.630;2023-12-14T08:25:05;99198.03;;;5.01;100.00
77939;BME280;67136;47.546;21.630;2023-12-14T08:28:08;99200.84;;;5.09;100.00
77939;BME280;67136;47.546;21.630;2023-12-14T08:31:11;99208.72;;;4.86;100.00
77939;BME280;67136;47.546;21.630;2023-12-14T08:34:14;99205.56;;;4.93;100.00
77939;BME280;67136;47.546;21.630;2023-12-14T08:37:17;99214.16;;;5.05;100.00
77939;BME280;67136;47.546;21.630;2023-12-14T08:40:20;99216.59;;;5.29;100.00
77939;BME280;67136;47.546;21.630;2023-12-14T08:43:23;99221.53;;;5.32;100.00
77939;BME280;67136;47.546;21.630;2023-12-14T08:46:26;99221.19;;;5.47;100.00
77939;BME280;67136;47.546;21.630;2023-12-14T08:49:30;99222.34;;;5.43;100.00
77939;BME280;67136;47.546;21.630;2023-12-14T08:52:33;99221.97;;;5.48;100.00
77939;BME280;67136;47.546;21.630;2023-12-14T08:55:36;99231.09;;;5.31;100.00
77939;BME280;67136;47.546;21.630;2023-12-14T08:58:39;99223.56;;;5.17;100.00
77939;BME280;67136;47.546;21.630;2023-12-14T09:01:42;99235.91;;;5.02;100.00
77939;BME280;67136;47.546;21.630;2023-12-14T09:04:45;99234.75;;;5.18;100.00
77939;BME280;67136;47.546;21.630;2023-12-14T09:07:47;99231.94;;;5.21;100.00
77939;BME280;67136;47.546;21.630;2023-12-14T09:10:50;99221.97;;;5.48;100.00
77939;BME280;67136;47.546;21.630;2023-12-14T09:13:54;99235.19;;;5.56;100.00
77939;BME280;67136;47.546;21.630;2023-12-14T09:16:58;99240.84;;;5.28;100.00
77939;BME280;67136;47.546;21.630;2023-12-14T09:20:01;99244.28;;;5.39;100.00
77939;BME280;67136;47.546;21.630;2023-12-14T09:23:09;99246.28;;;5.36;100.00
77939;BME280;67136;47.546;21.630;2023-12-14T09:26:11;99243.69;;;5.36;100.00
77939;BME280;67136;47.546;21.630;2023-12-14T09:29:14;99243.31;;;5.51;100.00
77939;BME280;67136;47.546;21.630;2023-12-14T09:32:17;99247.19;;;5.68;100.00
77939;BME280;67136;47.546;21.630;2023-12-14T09:35:20;99257.78;;;5.76;100.00
77939;BME280;67136;47.546;21.630;2023-12-14T09:38:23;99254.72;;;5.71;100.00
77939;BME280;67136;47.546;21.630;2023-12-14T09:41:26;99256.56;;;5.80;100.00
77939;BME280;67136;47.546;21.630;2023-12-14T09:44:29;99262.56;;;5.91;100.00
77939;BME280;67136;47.546;21.630;2023-12-14T09:47:32;99258.09;;;5.93;100.00
77939;BME280;67136;47.546;21.630;2023-12-14T09:50:35;99263.25;;;6.04;100.00
77939;BME280;67136;47.546;21.630;2023-12-14T09:53:39;99262.19;;;6.07;100.00
77939;BME280;67136;47.546;21.630;2023-12-14T09:56:48;99275.59;;;6.12;100.00
77939;BME280;67136;47.546;21.630;2023-12-14T09:59:52;99280.97;;;5.88;100.00
77939;BME280;67136;47.546;21.630;2023-12-14T10:02:55;99279.41;;;6.08;100.00
77939;BME280;67136;47.546;21.630;2023-12-14T10:05:59;99271.75;;;6.06;100.00
77939;BME280;67136;47.546;21.630;2023-12-14T10:09:05;99279.56;;;6.27;100.00
77939;BME280;67136;47.546;21.630;2023-12-14T10:12:12;99272.75;;;6.15;100.00
77939;BME280;67136;47.546;21.630;2023-12-14T10:15:15;99281.81;;;6.20;100.00
77939;BME280;67136;47.546;21.630;2023-12-14T10:18:23;99283.59;;;6.20;100.00
77939;BME280;67136;47.546;21.630;2023-12-14T10:21:31;99287.91;;;5.99;100.00
77939;BME280;67136;47.546;21.630;2023-12-14T10:24:34;99288.66;;;5.79;100.00
77939;BME280;67136;47.546;21.630;2023-12-14T10:27:37;99300.56;;;5.92;100.00
77939;BME280;67136;47.546;21.630;2023-12-14T10:30:41;99304.19;;;6.01;100.00
77939;BME280;67136;47.546;21.630;2023-12-14T10:33:44;99301.03;;;5.86;100.00
77939;BME280;67136;47.546;21.630;2023-12-14T10:36:49;99303.75;;;5.85;100.00
77939;BME280;67136;47.546;21.630;2023-12-14T10:39:53;99305.03;;;5.68;100.00
77939;BME280;67136;47.546;21.630;2023-12-14T10:42:58;99310.56;;;5.75;100.00
77939;BME280;67136;47.546;21.630;2023-12-14T10:46:05;99305.19;;;5.56;100.00
77939;BME280;67136;47.546;21.630;2023-12-14T10:49:10;99310.34;;;5.45;100.00
77939;BME280;67136;47.546;21.630;2023-12-14T10:52:13;99316.94;;;5.60;100.00
77939;BME280;67136;47.546;21.630;2023-12-14T10:55:27;99315.09;;;5.51;100.00
77939;BME280;67136;47.546;21.630;2023-12-14T10:58:50;99322.50;;;5.55;100.00
77939;BME280;67136;47.546;21.630;2023-12-14T11:01:54;99309.31;;;5.69;100.00
77939;BME280;67136;47.546;21.630;2023-12-14T11:05:01;99319.88;;;5.66;100.00
77939;BME280;67136;47.546;21.630;2023-12-14T11:08:09;99315.41;;;5.79;100.00
77939;BME280;67136;47.546;21.630;2023-12-14T11:11:15;99325.91;;;5.89;100.00
77939;BME280;67136;47.546;21.630;2023-12-14T11:14:24;99327.56;;;5.90;100.00
77939;BME280;67136;47.546;21.630;2023-12-14T11:17:29;99325.56;;;5.82;100.00
77939;BME280;67136;47.546;21.630;2023-12-14T11:20:47;99321.00;;;6.17;100.00
77939;BME280;67136;47.546;21.630;2023-12-14T11:23:51;99323.22;;;6.22;100.00
77939;BME280;67136;47.546;21.630;2023-12-14T11:26:54;99332.22;;;6.50;100.00
77939;BME280;67136;47.546;21.630;2023-12-14T11:29:57;99334.56;;;6.21;100.00
77939;BME280;67136;47.546;21.630;2023-12-14T11:33:01;99336.34;;;6.20;100.00
77939;BME280;67136;47.546;21.630;2023-12-14T11:36:05;99341.28;;;6.23;100.00
77939;BME280;67136;47.546;21.630;2023-12-14T11:39:11;99348.47;;;6.20;100.00
77939;BME280;67136;47.546;21.630;2023-12-14T11:42:18;99349.28;;;6.32;100.00
77939;BME280;67136;47.546;21.630;2023-12-14T11:45:21;99350.59;;;6.26;100.00
77939;BME280;67136;47.546;21.630;2023-12-14T11:48:24;99352.87;;;6.08;100.00
77939;BME280;67136;47.546;21.630;2023-12-14T11:51:28;99358.41;;;6.15;100.00
77939;BME280;67136;47.546;21.630;2023-12-14T11:54:33;99365.50;;;6.13;100.00
77939;BME280;67136;47.546;21.630;2023-12-14T11:57:37;99370.31;;;6.17;100.00
77939;BME280;67136;47.546;21.630;2023-12-14T12:00:39;99373.97;;;6.15;100.00
77939;BME280;67136;47.546;21.630;2023-12-14T12:03:44;99383.53;;;6.03;100.00
77939;BME280;67136;47.546;21.630;2023-12-14T12:06:47;99395.19;;;6.20;100.00
77939;BME280;67136;47.546;21.630;2023-12-14T12:09:50;99391.75;;;6.30;100.00
77939;BME280;67136;47.546;21.630;2023-12-14T12:13:06;99390.72;;;6.22;100.00
77939;BME280;67136;47.546;21.630;2023-12-14T12:16:10;99387.53;;;6.18;100.00
77939;BME280;67136;47.546;21.630;2023-12-14T12:19:14;99400.66;;;6.06;100.00
77939;BME280;67136;47.546;21.630;2023-12-14T12:22:18;99408.06;;;6.10;100.00
77939;BME280;67136;47.546;21.630;2023-12-14T12:25:21;99410.78;;;6.09;100.00
77939;BME280;67136;47.546;21.630;2023-12-14T12:28:26;99409.28;;;6.06;100.00
77939;BME280;67136;47.546;21.630;2023-12-14T12:31:29;99412.22;;;5.91;100.00
77939;BME280;67136;47.546;21.630;2023-12-14T12:34:33;99418.69;;;6.07;100.00
77939;BME280;67136;47.546;21.630;2023-12-14T12:37:36;99417.16;;;6.16;100.00
77939;BME280;67136;47.546;21.630;2023-12-14T12:40:39;99421.41;;;6.17;100.00
77939;BME280;67136;47.546;21.630;2023-12-14T12:43:42;99427.78;;;6.13;100.00
77939;BME280;67136;47.546;21.630;2023-12-14T12:46:47;99430.37;;;6.13;100.00
77939;BME280;67136;47.546;21.630;2023-12-14T12:50:03;99427.53;;;6.16;100.00
77939;BME280;67136;47.546;21.630;2023-12-14T12:53:07;99438.16;;;6.13;100.00
77939;BME280;67136;47.546;21.630;2023-12-14T12:56:10;99436.87;;;6.07;100.00
77939;BME280;67136;47.546;21.630;2023-12-14T12:59:13;99449.22;;;6.26;100.00
77939;BME280;67136;47.546;21.630;2023-12-14T13:02:17;99454.72;;;6.55;100.00
77939;BME280;67136;47.546;21.630;2023-12-14T13:05:21;99454.22;;;6.61;100.00
77939;BME280;67136;47.546;21.630;2023-12-14T13:08:27;99458.84;;;6.57;100.00
77939;BME280;67136;47.546;21.630;2023-12-14T13:11:32;99459.47;;;6.39;100.00
77939;BME280;67136;47.546;21.630;2023-12-14T13:14:36;99465.03;;;6.34;100.00
77939;BME280;67136;47.546;21.630;2023-12-14T13:17:39;99470.31;;;6.44;100.00
77939;BME280;67136;47.546;21.630;2023-12-14T13:20:43;99471.66;;;6.38;100.00
77939;BME280;67136;47.546;21.630;2023-12-14T13:23:46;99484.16;;;6.33;100.00
77939;BME280;67136;47.546;21.630;2023-12-14T13:26:50;99482.50;;;6.32;100.00
77939;BME280;67136;47.546;21.630;2023-12-14T13:29:53;99496.41;;;6.20;100.00
77939;BME280;67136;47.546;21.630;2023-12-14T13:32:56;99502.09;;;6.14;100.00
77939;BME280;67136;47.546;21.630;2023-12-14T13:35:59;99510.72;;;6.14;100.00
77939;BME280;67136;47.546;21.630;2023-12-14T13:39:02;99516.47;;;6.07;100.00
77939;BME280;67136;47.546;21.630;2023-12-14T13:42:05;99509.88;;;6.03;100.00
77939;BME280;67136;47.546;21.630;2023-12-14T13:45:11;99520.63;;;6.09;100.00
77939;BME280;67136;47.546;21.630;2023-12-14T13:48:13;99514.13;;;6.26;100.00
77939;BME280;67136;47.546;21.630;2023-12-14T13:51:16;99522.16;;;6.23;100.00
77939;BME280;67136;47.546;21.630;2023-12-14T13:54:19;99532.75;;;6.09;100.00
77939;BME280;67136;47.546;21.630;2023-12-14T13:57:22;99534.16;;;6.02;100.00
77939;BME280;67136;47.546;21.630;2023-12-14T14:00:25;99534.16;;;6.02;100.00
77939;BME280;67136;47.546;21.630;2023-12-14T14:03:28;99532.59;;;5.88;100.00
77939;BME280;67136;47.546;21.630;2023-12-14T14:06:31;99529.84;;;5.79;100.00
77939;BME280;67136;47.546;21.630;2023-12-14T14:09:34;99536.44;;;5.72;100.00
77939;BME280;67136;47.546;21.630;2023-12-14T14:12:37;99552.22;;;5.69;100.00
77939;BME280;67136;47.546;21.630;2023-12-14T14:15:41;99560.25;;;5.66;100.00
77939;BME280;67136;47.546;21.630;2023-12-14T14:18:43;99573.44;;;5.63;100.00
77939;BME280;67136;47.546;21.630;2023-12-14T14:21:47;99588.16;;;5.62;100.00
77939;BME280;67136;47.546;21.630;2023-12-14T14:24:50;99593.09;;;5.54;100.00
77939;BME280;67136;47.546;21.630;2023-12-14T14:27:53;99596.72;;;5.52;100.00
77939;BME280;67136;47.546;21.630;2023-12-14T14:30:56;99597.87;;;5.48;100.00
77939;BME280;67136;47.546;21.630;2023-12-14T14:33:59;99597.37;;;5.43;100.00
77939;BME280;67136;47.546;21.630;2023-12-14T14:37:02;99614.34;;;5.36;100.00
77939;BME280;67136;47.546;21.630;2023-12-14T14:40:06;99615.75;;;5.40;100.00
77939;BME280;67136;47.546;21.630;2023-12-14T14:43:11;99622.31;;;5.33;100.00
77939;BME280;67136;47.546;21.630;2023-12-14T14:46:14;99620.00;;;5.41;100.00
77939;BME280;67136;47.546;21.630;2023-12-14T14:49:16;99629.44;;;5.42;100.00
77939;BME280;67136;47.546;21.630;2023-12-14T14:52:20;99633.34;;;5.24;100.00
77939;BME280;67136;47.546;21.630;2023-12-14T14:55:22;99634.81;;;5.15;100.00
77939;BME280;67136;47.546;21.630;2023-12-14T14:58:25;99642.78;;;4.88;100.00
77939;BME280;67136;47.546;21.630;2023-12-14T15:01:27;99639.91;;;4.80;100.00
77939;BME280;67136;47.546;21.630;2023-12-14T15:04:30;99636.78;;;4.75;100.00
77939;BME280;67136;47.546;21.630;2023-12-14T15:07:34;99637.41;;;4.66;100.00
77939;BME280;67136;47.546;21.630;2023-12-14T15:10:38;99640.31;;;4.49;100.00
77939;BME280;67136;47.546;21.630;2023-12-14T15:13:40;99649.84;;;4.36;100.00
77939;BME280;67136;47.546;21.630;2023-12-14T15:16:44;99644.78;;;4.22;100.00
77939;BME280;67136;47.546;21.630;2023-12-14T15:19:46;99644.47;;;4.14;100.00
77939;BME280;67136;47.546;21.630;2023-12-14T15:22:49;99656.88;;;4.09;100.00
77939;BME280;67136;47.546;21.630;2023-12-14T15:25:52;99658.94;;;4.04;100.00
77939;BME280;67136;47.546;21.630;2023-12-14T15:28:55;99658.41;;;3.99;100.00
77939;BME280;67136;47.546;21.630;2023-12-14T15:31:58;99658.94;;;4.04;100.00
77939;BME280;67136;47.546;21.630;2023-12-14T15:35:01;99664.84;;;4.06;100.00
77939;BME280;67136;47.546;21.630;2023-12-14T15:38:05;99662.84;;;3.97;100.00
77939;BME280;67136;47.546;21.630;2023-12-14T15:41:08;99660.38;;;3.96;100.00
77939;BME280;67136;47.546;21.630;2023-12-14T15:44:10;99645.00;;;3.80;100.00
77939;BME280;67136;47.546;21.630;2023-12-14T15:47:14;99663.63;;;3.85;100.00
77939;BME280;67136;47.546;21.630;2023-12-14T15:50:16;99666.16;;;3.99;100.00
77939;BME280;67136;47.546;21.630;2023-12-14T15:53:19;99676.62;;;4.10;100.00
77939;BME280;67136;47.546;21.630;2023-12-14T15:56:22;99686.06;;;4.11;100.00
77939;BME280;67136;47.546;21.630;2023-12-14T15:59:25;99693.50;;;4.16;100.00
77939;BME280;67136;47.546;21.630;2023-12-14T16:02:29;99686.59;;;4.16;100.00